createdAt,value
2022-12-09T00:00:22.617Z,17.85
2022-12-09T00:02:49.384Z,19.80
2022-12-09T00:05:16.249Z,15.70
2022-12-09T00:07:44.393Z,18.85
2022-12-09T00:10:11.507Z,14.52
2022-12-09T00:12:38.415Z,15.68
2022-12-09T00:15:05.642Z,25.65
2022-12-09T00:17:32.319Z,23.58
2022-12-09T00:19:58.880Z,24.13
2022-12-09T00:22:26.856Z,26.88
2022-12-09T00:24:54.805Z,19.55
2022-12-09T00:27:21.385Z,25.95
2022-12-09T00:29:48.099Z,19.38
2022-12-09T00:32:14.955Z,29.27
2022-12-09T00:34:41.795Z,14.43
2022-12-09T00:37:08.276Z,19.05
2022-12-09T00:39:35.021Z,22.80
2022-12-09T00:42:03.132Z,26.48
2022-12-09T00:44:29.876Z,28.23
2022-12-09T00:46:56.472Z,38.10
2022-12-09T00:49:23.294Z,21.67
2022-12-09T00:51:49.962Z,18.60
2022-12-09T00:54:16.500Z,27.58
2022-12-09T00:56:43.155Z,19.80
2022-12-09T00:59:11.244Z,34.15
2022-12-09T01:01:37.957Z,22.90
2022-12-09T01:04:06.138Z,22.98
2022-12-09T01:06:32.772Z,26.27
2022-12-09T01:08:59.499Z,22.15
2022-12-09T01:11:28.329Z,16.05
2022-12-09T01:13:57.629Z,22.88
2022-12-09T01:16:27.664Z,16.60
2022-12-09T01:18:55.604Z,18.85
2022-12-09T01:21:22.217Z,16.35
2022-12-09T01:23:48.847Z,13.27
2022-12-09T01:26:15.456Z,18.45
2022-12-09T01:28:42.512Z,13.65
2022-12-09T01:31:11.948Z,18.05
2022-12-09T01:33:40.385Z,22.67
2022-12-09T01:36:09.748Z,17.95
2022-12-09T01:38:36.373Z,16.42
2022-12-09T01:41:03.155Z,18.02
2022-12-09T01:43:30.031Z,25.67
2022-12-09T01:45:56.875Z,15.50
2022-12-09T01:48:27.367Z,26.58
2022-12-09T01:51:00.660Z,14.65
2022-12-09T01:53:30.230Z,18.10
2022-12-09T01:56:01.062Z,15.13
2022-12-09T01:58:28.413Z,13.60
2022-12-09T02:00:55.116Z,15.38
2022-12-09T02:03:22.329Z,16.88
2022-12-09T02:05:49.208Z,12.55
2022-12-09T02:08:19.716Z,17.85
2022-12-09T02:10:54.607Z,24.40
2022-12-09T02:13:31.212Z,17.25
2022-12-09T02:16:01.181Z,21.17
2022-12-09T02:18:34.928Z,19.75
2022-12-09T02:21:06.887Z,16.35
2022-12-09T02:23:39.960Z,15.60
2022-12-09T02:26:14.442Z,16.23
2022-12-09T02:29:14.284Z,23.40
2022-12-09T02:31:53.327Z,25.20
2022-12-09T02:34:22.754Z,13.32
2022-12-09T02:36:58.482Z,16.33
2022-12-09T02:39:31.183Z,19.15
2022-12-09T02:42:02.691Z,17.05
2022-12-09T02:44:31.303Z,15.93
2022-12-09T02:46:59.050Z,15.88
2022-12-09T02:49:29.745Z,16.83
2022-12-09T02:51:58.383Z,21.48
2022-12-09T02:54:29.451Z,27.00
2022-12-09T02:59:24.339Z,21.17
2022-12-09T03:02:00.607Z,19.45
2022-12-09T03:04:30.763Z,15.55
2022-12-09T03:07:07.845Z,17.60
2022-12-09T03:09:37.279Z,21.48
2022-12-09T03:12:10.920Z,18.05
2022-12-09T03:14:42.306Z,15.00
2022-12-09T03:17:13.786Z,14.85
2022-12-09T03:19:45.428Z,18.85
2022-12-09T03:22:15.418Z,17.05
2022-12-09T03:24:47.463Z,13.02
2022-12-09T03:27:19.340Z,23.33
2022-12-09T03:29:48.618Z,21.90
2022-12-09T03:32:19.499Z,14.88
2022-12-09T03:34:50.574Z,13.77
2022-12-09T03:37:20.180Z,21.05
2022-12-09T03:39:48.822Z,13.93
2022-12-09T03:42:19.824Z,25.17
2022-12-09T03:44:52.344Z,13.50
2022-12-09T03:47:19.080Z,17.73
2022-12-09T03:49:47.733Z,21.55
2022-12-09T03:52:20.016Z,22.63
2022-12-09T03:54:47.954Z,19.67
2022-12-09T03:57:18.948Z,16.65
2022-12-09T03:59:52.725Z,14.07
2022-12-09T04:02:19.918Z,27.98
2022-12-09T04:04:48.291Z,23.38
2022-12-09T04:07:14.953Z,18.83
2022-12-09T04:09:41.654Z,24.63
2022-12-09T04:12:08.939Z,18.25
2022-12-09T04:14:35.794Z,24.27
2022-12-09T04:17:02.680Z,37.55
2022-12-09T04:19:29.668Z,14.20
2022-12-09T04:21:57.632Z,25.98
2022-12-09T04:24:24.344Z,14.60
2022-12-09T04:26:50.929Z,17.17
2022-12-09T04:29:17.767Z,15.75
2022-12-09T04:31:44.661Z,19.52
2022-12-09T04:34:11.510Z,16.50
2022-12-09T04:36:38.622Z,15.40
2022-12-09T04:39:06.948Z,18.55
2022-12-09T04:41:33.621Z,17.27
2022-12-09T04:44:01.289Z,16.88
2022-12-09T04:46:28.354Z,16.88
2022-12-09T04:48:54.949Z,27.67
2022-12-09T04:51:21.515Z,25.92
2022-12-09T04:53:48.147Z,23.08
2022-12-09T04:56:18.365Z,30.52
2022-12-09T04:58:45.601Z,21.83
2022-12-09T05:01:13.891Z,33.25
2022-12-09T05:03:41.279Z,24.73
2022-12-09T05:06:11.729Z,27.77
2022-12-09T05:08:39.415Z,21.98
2022-12-09T05:11:07.040Z,23.23
2022-12-09T05:13:35.338Z,24.17
2022-12-09T05:16:03.639Z,27.85
2022-12-09T05:18:30.780Z,24.08
2022-12-09T05:20:57.871Z,19.95
2022-12-09T05:23:25.435Z,16.65
2022-12-09T05:25:52.377Z,28.23
2022-12-09T05:28:19.003Z,25.63
2022-12-09T05:30:47.311Z,15.85
2022-12-09T05:33:14.568Z,17.00
2022-12-09T05:35:52.224Z,28.08
2022-12-09T05:38:19.570Z,23.60
2022-12-09T05:40:46.588Z,20.42
2022-12-09T05:43:13.343Z,23.98
2022-12-09T05:45:39.905Z,22.35
2022-12-09T05:48:08.332Z,15.32
2022-12-09T05:50:35.336Z,27.48
2022-12-09T05:53:02.151Z,26.55
2022-12-09T05:55:29.045Z,21.42
2022-12-09T05:57:55.783Z,22.67
2022-12-09T06:00:23.249Z,31.50
2022-12-09T06:02:50.288Z,23.85
2022-12-09T06:05:18.575Z,21.95
2022-12-09T06:07:45.761Z,27.60
2022-12-09T06:10:13.063Z,25.10
2022-12-09T06:12:41.082Z,23.60
2022-12-09T06:15:10.548Z,25.23
2022-12-09T06:17:38.102Z,33.90
2022-12-09T06:20:06.744Z,33.20
2022-12-09T06:22:35.489Z,29.52
2022-12-09T06:25:02.030Z,25.25
2022-12-09T06:27:28.744Z,23.95
2022-12-09T06:29:55.325Z,29.30
2022-12-09T06:32:22.041Z,32.13
2022-12-09T06:34:49.346Z,44.08
2022-12-09T06:37:16.115Z,22.80
2022-12-09T06:39:44.320Z,26.40
2022-12-09T06:42:10.891Z,36.67
2022-12-09T06:44:37.791Z,27.30
2022-12-09T06:47:04.726Z,35.10
2022-12-09T06:49:31.649Z,35.65
2022-12-09T06:51:58.295Z,24.92
2022-12-09T06:54:25.016Z,25.70
2022-12-09T06:56:53.221Z,22.60
2022-12-09T06:59:20.028Z,30.67
2022-12-09T07:01:46.727Z,28.92
2022-12-09T07:04:14.803Z,27.15
2022-12-09T07:06:43.586Z,28.02
2022-12-09T07:09:12.439Z,28.30
2022-12-09T07:11:39.709Z,25.33
2022-12-09T07:14:08.158Z,32.25
2022-12-09T07:16:35.404Z,30.10
2022-12-09T07:19:03.445Z,31.55
2022-12-09T07:21:30.432Z,23.25
2022-12-09T07:23:59.465Z,39.53
2022-12-09T07:26:26.232Z,24.65
2022-12-09T07:28:53.148Z,24.60
2022-12-09T07:31:23.470Z,22.75
2022-12-09T07:33:51.792Z,26.02
2022-12-09T07:36:21.352Z,21.08
2022-12-09T07:38:49.241Z,32.83
2022-12-09T07:41:16.417Z,21.63
2022-12-09T07:43:44.021Z,26.83
2022-12-09T07:46:11.401Z,23.77
2022-12-09T07:48:39.861Z,33.97
2022-12-09T07:51:07.386Z,26.35
2022-12-09T07:53:35.203Z,26.23
2022-12-09T07:56:03.185Z,27.95
2022-12-09T07:58:29.968Z,28.60
2022-12-09T08:00:56.618Z,26.67
2022-12-09T08:03:23.821Z,26.67
2022-12-09T08:05:53.248Z,27.55
2022-12-09T08:08:20.946Z,27.83
2022-12-09T08:10:47.835Z,21.95
2022-12-09T08:13:15.364Z,25.60
2022-12-09T08:15:42.170Z,28.58
2022-12-09T08:18:09.327Z,26.17
2022-12-09T08:20:37.104Z,24.48
2022-12-09T08:23:05.646Z,29.05
2022-12-09T08:25:32.437Z,25.80
2022-12-09T08:27:59.484Z,42.22
2022-12-09T08:30:26.377Z,33.97
2022-12-09T08:32:53.186Z,38.72
2022-12-09T08:35:20.304Z,31.70
2022-12-09T08:37:47.228Z,36.30
2022-12-09T08:40:15.629Z,38.58
2022-12-09T08:42:42.517Z,41.95
2022-12-09T08:45:09.423Z,31.65
2022-12-09T08:47:36.317Z,38.45
2022-12-09T08:50:04.142Z,33.72
2022-12-09T08:52:34.583Z,42.60
2022-12-09T08:55:06.302Z,33.55
2022-12-09T08:57:34.502Z,40.90
2022-12-09T09:00:01.267Z,37.38
2022-12-09T09:02:28.518Z,36.28
2022-12-09T09:04:55.700Z,31.52
2022-12-09T09:07:22.791Z,32.40
2022-12-09T09:09:49.701Z,37.42
2022-12-09T09:12:16.786Z,35.25
2022-12-09T09:14:44.684Z,46.17
2022-12-09T09:17:11.281Z,25.35
2022-12-09T09:19:38.454Z,37.92
2022-12-09T09:22:05.639Z,34.25
2022-12-09T09:24:32.595Z,34.60
2022-12-09T09:26:59.607Z,34.20
2022-12-09T09:29:26.342Z,33.85
2022-12-09T09:31:55.039Z,35.80
2022-12-09T09:34:22.470Z,30.30
2022-12-09T09:36:49.858Z,28.90
2022-12-09T09:39:17.386Z,35.28
2022-12-09T09:41:51.090Z,29.67
2022-12-09T09:44:30.434Z,42.47
2022-12-09T09:47:00.425Z,44.85
2022-12-09T09:49:34.737Z,36.33
2022-12-09T09:52:06.041Z,41.05
2022-12-09T09:54:33.057Z,42.50
2022-12-09T09:57:07.035Z,35.15
2022-12-09T09:59:43.535Z,33.83
2022-12-09T10:02:19.470Z,31.35
2022-12-09T10:05:07.486Z,30.27
2022-12-09T10:07:41.017Z,31.38
2022-12-09T10:10:22.730Z,38.50
2022-12-09T10:13:09.397Z,32.83
2022-12-09T10:15:47.420Z,31.02
2022-12-09T10:18:21.170Z,31.83
2022-12-09T10:20:48.614Z,48.35
2022-12-09T10:23:16.676Z,35.20
2022-12-09T10:25:48.090Z,34.70
2022-12-09T10:28:20.885Z,39.72
2022-12-09T10:30:48.679Z,30.95
2022-12-09T10:33:18.354Z,30.67
2022-12-09T10:35:45.929Z,42.97
2022-12-09T10:38:15.531Z,39.35
2022-12-09T10:40:53.747Z,30.25
2022-12-09T10:43:23.495Z,27.02
2022-12-09T10:48:52.183Z,28.15
2022-12-09T10:51:21.668Z,24.75
2022-12-09T10:53:52.436Z,29.02
2022-12-09T10:56:25.183Z,26.38
2022-12-09T10:59:09.122Z,19.52
2022-12-09T11:01:48.849Z,28.10
2022-12-09T11:04:23.995Z,25.50
2022-12-09T11:06:58.722Z,24.48
2022-12-09T11:09:28.853Z,23.00
2022-12-09T11:11:56.047Z,25.80
2022-12-09T11:14:27.245Z,21.30
2022-12-09T11:16:56.565Z,23.65
2022-12-09T11:19:34.321Z,21.33
2022-12-09T11:22:29.314Z,22.88
2022-12-09T11:25:15.058Z,21.98
2022-12-09T11:27:50.161Z,20.80
2022-12-09T11:30:19.120Z,27.80
2022-12-09T11:33:17.029Z,25.63
2022-12-09T11:35:54.872Z,25.23
2022-12-09T11:38:34.991Z,21.48
2022-12-09T11:41:06.096Z,30.60
2022-12-09T11:43:38.076Z,27.58
2022-12-09T11:46:22.364Z,27.83
2022-12-09T11:48:54.673Z,28.35
2022-12-09T11:51:25.875Z,25.55
2022-12-09T11:53:58.813Z,27.27
2022-12-09T11:56:29.312Z,26.20
2022-12-09T11:59:00.718Z,24.85
2022-12-09T12:01:38.403Z,28.25
2022-12-09T12:04:08.661Z,30.90
2022-12-09T12:06:44.867Z,28.95
2022-12-09T12:09:16.794Z,21.10
2022-12-09T12:11:52.129Z,28.55
2022-12-09T12:14:25.951Z,21.58
2022-12-09T12:17:02.206Z,37.33
2022-12-09T12:19:32.161Z,25.95
2022-12-09T12:22:23.195Z,27.88
2022-12-09T12:25:06.278Z,26.33
2022-12-09T12:27:43.650Z,33.55
2022-12-09T12:30:13.055Z,26.70
2022-12-09T12:33:33.101Z,31.42
2022-12-09T12:35:54.042Z,23.90
2022-12-09T12:38:31.606Z,22.05
2022-12-09T12:41:07.289Z,24.75
2022-12-09T12:43:47.678Z,25.98
2022-12-09T12:46:28.388Z,36.50
2022-12-09T12:49:11.942Z,20.88
2022-12-09T12:51:52.560Z,26.73
2022-12-09T12:54:30.927Z,31.70
2022-12-09T12:57:09.678Z,28.08
2022-12-09T12:59:43.508Z,25.17
2022-12-09T13:02:25.561Z,39.95
2022-12-09T13:04:57.271Z,22.92
2022-12-09T13:07:30.572Z,24.00
2022-12-09T13:10:03.448Z,28.52
2022-12-09T13:12:34.975Z,25.02
2022-12-09T13:15:02.485Z,25.75
2022-12-09T13:17:29.641Z,24.90
2022-12-09T13:20:00.921Z,37.95
2022-12-09T13:22:36.203Z,25.90
2022-12-09T13:25:15.342Z,40.35
2022-12-09T13:27:45.260Z,34.03
2022-12-09T13:30:16.679Z,26.50
2022-12-09T13:33:07.013Z,25.77
2022-12-09T13:35:39.399Z,23.33
2022-12-09T13:38:24.610Z,23.08
2022-12-09T13:40:52.535Z,25.85
2022-12-09T13:43:24.068Z,30.27
2022-12-09T13:45:54.239Z,22.10
2022-12-09T13:48:42.459Z,36.75
2022-12-09T13:51:09.189Z,38.70
2022-12-09T13:53:45.685Z,30.50
2022-12-09T13:56:23.029Z,40.60
2022-12-09T13:59:13.218Z,34.08
2022-12-09T14:01:44.831Z,28.17
2022-12-09T14:04:16.421Z,36.42
2022-12-09T14:06:54.601Z,31.55
2022-12-09T14:09:35.100Z,27.90
2022-12-09T14:12:05.065Z,29.30
2022-12-09T14:14:56.470Z,32.70
2022-12-09T14:17:56.897Z,41.42
2022-12-09T14:20:25.485Z,29.70
2022-12-09T14:23:16.694Z,34.20
2022-12-09T14:26:04.001Z,33.03
2022-12-09T14:28:52.935Z,31.00
2022-12-09T14:31:58.052Z,30.48
2022-12-09T14:34:36.992Z,27.48
2022-12-09T14:37:37.571Z,26.30
2022-12-09T14:40:21.298Z,35.15
2022-12-09T14:42:55.275Z,27.00
2022-12-09T14:45:34.883Z,22.95
2022-12-09T14:48:08.075Z,30.58
2022-12-09T14:50:34.805Z,27.63
2022-12-09T14:53:04.283Z,22.73
2022-12-09T14:55:36.145Z,25.35
2022-12-09T14:58:03.225Z,28.67
2022-12-09T15:00:34.405Z,28.10
2022-12-09T15:05:55.819Z,48.88
2022-12-09T15:08:33.451Z,34.10
2022-12-09T15:11:04.385Z,24.98
2022-12-09T15:13:31.361Z,31.15
2022-12-09T15:15:59.284Z,30.20
2022-12-09T15:18:26.843Z,26.52
2022-12-09T15:20:55.421Z,27.85
2022-12-09T15:23:24.033Z,38.67
2022-12-09T15:25:52.785Z,30.30
2022-12-09T15:28:26.119Z,31.33
2022-12-09T15:30:59.461Z,29.20
2022-12-09T15:33:27.410Z,32.85
2022-12-09T15:35:57.652Z,32.80
2022-12-09T15:38:25.519Z,32.15
2022-12-09T15:40:54.118Z,34.40
2022-12-09T15:43:20.738Z,31.85
2022-12-09T15:45:47.306Z,31.73
2022-12-09T15:48:18.300Z,31.35
2022-12-09T15:50:49.628Z,28.75
2022-12-09T15:53:21.730Z,32.72
2022-12-09T15:55:51.796Z,30.70
2022-12-09T15:58:22.795Z,51.83
2022-12-09T16:00:51.901Z,27.90
2022-12-09T16:03:23.233Z,29.80
2022-12-09T16:05:51.554Z,41.05
2022-12-09T16:08:18.665Z,31.20
2022-12-09T16:10:47.421Z,39.67
2022-12-09T16:13:17.194Z,28.33
2022-12-09T16:15:53.050Z,45.58
2022-12-09T16:18:24.187Z,32.20
2022-12-09T16:21:19.711Z,26.17
2022-12-09T16:23:49.447Z,20.17
2022-12-09T16:26:20.161Z,40.10
2022-12-09T16:28:54.206Z,28.15
2022-12-09T16:31:20.826Z,33.00
2022-12-09T16:33:49.703Z,31.05
2022-12-09T16:36:18.832Z,31.02
2022-12-09T16:39:07.129Z,36.58
2022-12-09T16:41:55.583Z,29.60
2022-12-09T16:44:29.116Z,44.20
2022-12-09T16:47:09.403Z,32.92
2022-12-09T16:49:37.544Z,40.50
2022-12-09T16:52:04.372Z,37.13
2022-12-09T16:54:31.021Z,28.65
2022-12-09T16:56:57.594Z,32.97
2022-12-09T16:59:24.354Z,36.92
2022-12-09T17:01:51.757Z,43.75
2022-12-09T17:04:23.073Z,38.83
2022-12-09T17:06:51.137Z,40.00
2022-12-09T17:09:17.678Z,40.85
2022-12-09T17:11:48.604Z,38.67
2022-12-09T17:14:16.463Z,40.50
2022-12-09T17:16:43.053Z,42.28
2022-12-09T17:19:09.674Z,39.72
2022-12-09T17:21:36.226Z,36.70
2022-12-09T17:24:04.425Z,42.45
2022-12-09T17:26:30.962Z,41.17
2022-12-09T17:29:01.581Z,36.97
2022-12-09T17:31:29.253Z,58.92
2022-12-09T17:33:56.465Z,39.35
2022-12-09T17:36:23.034Z,48.90
2022-12-09T17:38:49.643Z,59.03
2022-12-09T17:41:18.152Z,41.35
2022-12-09T17:43:44.705Z,38.33
2022-12-09T17:46:12.150Z,37.75
2022-12-09T17:48:38.754Z,44.75
2022-12-09T17:51:06.454Z,43.28
2022-12-09T17:53:35.545Z,46.53
2022-12-09T17:56:05.570Z,36.72
2022-12-09T17:58:33.461Z,39.28
2022-12-09T18:01:00.040Z,37.22
2022-12-09T18:03:54.480Z,44.30
2022-12-09T18:06:13.946Z,40.47
2022-12-09T18:08:41.054Z,37.80
2022-12-09T18:11:10.327Z,57.78
2022-12-09T18:13:38.610Z,37.90
2022-12-09T18:16:08.384Z,35.60
2022-12-09T18:18:35.295Z,37.92
2022-12-09T18:21:01.879Z,35.88
2022-12-09T18:23:28.494Z,35.45
2022-12-09T18:25:55.139Z,36.85
2022-12-09T18:28:21.692Z,43.90
2022-12-09T18:30:49.602Z,35.20
2022-12-09T18:33:16.234Z,41.83
2022-12-09T18:35:42.745Z,30.15
2022-12-09T18:38:12.719Z,47.60
2022-12-09T18:40:39.929Z,32.00
2022-12-09T18:43:06.534Z,36.78
2022-12-09T18:45:34.578Z,34.53
2022-12-09T18:48:02.540Z,45.58
2022-12-09T18:50:29.066Z,32.58
2022-12-09T18:52:55.598Z,36.50
2022-12-09T18:55:22.208Z,30.38
2022-12-09T18:57:48.863Z,33.38
2022-12-09T19:00:15.625Z,36.80
2022-12-09T19:02:42.179Z,38.08
2022-12-09T19:05:10.186Z,43.50
2022-12-09T19:07:36.680Z,39.83
2022-12-09T19:10:03.660Z,43.08
2022-12-09T19:12:46.362Z,46.65
2022-12-09T19:15:14.283Z,35.13
2022-12-09T19:17:40.920Z,37.35
2022-12-09T19:20:10.697Z,33.67
2022-12-09T19:22:37.336Z,35.03
2022-12-09T19:25:04.521Z,34.17
2022-12-09T19:27:31.069Z,35.10
2022-12-09T19:29:57.669Z,40.50
2022-12-09T19:32:52.083Z,38.65
2022-12-09T19:35:12.306Z,38.05
2022-12-09T19:37:38.834Z,36.45
2022-12-09T19:40:07.113Z,42.40
2022-12-09T19:42:33.840Z,41.30
2022-12-09T19:45:02.462Z,38.47
2022-12-09T19:47:30.296Z,33.88
2022-12-09T19:49:56.799Z,31.48
2022-12-09T19:52:24.713Z,33.80
2022-12-09T19:54:51.232Z,47.78
2022-12-09T19:57:17.729Z,45.75
2022-12-09T19:59:44.226Z,43.05
2022-12-09T20:02:11.056Z,35.90
2022-12-09T20:04:53.112Z,41.95
2022-12-09T20:07:20.105Z,37.80
2022-12-09T20:09:48.595Z,48.42
2022-12-09T20:12:15.403Z,34.28
2022-12-09T20:14:42.077Z,37.35
2022-12-09T20:17:08.637Z,35.35
2022-12-09T20:19:38.031Z,45.53
2022-12-09T20:22:05.213Z,46.92
2022-12-09T20:24:31.747Z,48.92
2022-12-09T20:26:59.656Z,47.05
2022-12-09T20:29:26.172Z,34.60
2022-12-09T20:31:52.994Z,36.20
2022-12-09T20:34:19.630Z,31.48
2022-12-09T20:36:46.226Z,36.70
2022-12-09T20:39:15.029Z,28.75
2022-12-09T20:41:42.182Z,30.30
2022-12-09T20:44:11.320Z,36.42
2022-12-09T20:46:39.172Z,35.53
2022-12-09T20:49:05.831Z,39.42
2022-12-09T20:51:35.353Z,38.25
2022-12-09T20:54:01.939Z,42.08
2022-12-09T20:56:29.750Z,48.42
2022-12-09T20:58:56.982Z,45.20
2022-12-09T21:01:26.734Z,36.97
2022-12-09T21:03:54.981Z,42.80
2022-12-09T21:06:23.544Z,36.83
2022-12-09T21:08:50.487Z,33.65
2022-12-09T21:11:19.076Z,44.03
2022-12-09T21:13:47.626Z,42.03
2022-12-09T21:16:15.693Z,57.58
2022-12-09T21:18:43.891Z,39.63
2022-12-09T21:21:10.394Z,33.97
2022-12-09T21:23:37.478Z,40.38
2022-12-09T21:26:05.596Z,44.67
2022-12-09T21:28:32.559Z,44.65
2022-12-09T21:30:59.084Z,47.97
2022-12-09T21:33:25.608Z,48.80
2022-12-09T21:35:53.469Z,41.67
2022-12-09T21:38:19.979Z,43.92
2022-12-09T21:40:46.490Z,35.53
2022-12-09T21:43:13.018Z,43.03
2022-12-09T21:45:39.537Z,37.13
2022-12-09T21:48:06.565Z,45.05
2022-12-09T21:50:33.062Z,45.58
2022-12-09T21:53:00.926Z,44.47
2022-12-09T21:55:27.462Z,38.88
2022-12-09T21:57:53.961Z,43.80
2022-12-09T22:00:20.456Z,38.47
2022-12-09T22:02:51.253Z,38.95
2022-12-09T22:05:17.879Z,49.67
2022-12-09T22:07:48.330Z,45.35
2022-12-09T22:10:16.418Z,40.25
2022-12-09T22:12:42.988Z,42.90
2022-12-09T22:15:10.174Z,39.65
2022-12-09T22:17:36.782Z,37.88
2022-12-09T22:20:44.025Z,50.42
2022-12-09T22:22:50.273Z,48.03
2022-12-09T22:25:18.135Z,56.53
2022-12-09T22:27:44.670Z,56.90
2022-12-09T22:30:12.138Z,51.80
2022-12-09T22:32:41.581Z,41.75
2022-12-09T22:35:10.400Z,58.58
2022-12-09T22:37:43.523Z,45.05
2022-12-09T22:40:11.705Z,45.78
2022-12-09T22:42:39.610Z,55.33
2022-12-09T22:45:07.355Z,55.08
2022-12-09T22:47:33.836Z,49.50
2022-12-09T22:50:00.421Z,38.25
2022-12-09T22:52:26.922Z,50.80
2022-12-09T22:54:53.510Z,45.33
2022-12-09T22:57:20.007Z,31.90
2022-12-09T22:59:47.938Z,40.45
2022-12-09T23:02:14.625Z,49.00
2022-12-09T23:04:41.191Z,41.05
2022-12-09T23:07:07.683Z,45.67
2022-12-09T23:09:34.246Z,39.53
2022-12-09T23:12:00.741Z,38.03
2022-12-09T23:14:27.267Z,40.45
2022-12-09T23:16:55.144Z,43.88
2022-12-09T23:19:21.692Z,42.35
2022-12-09T23:21:48.351Z,39.67
2022-12-09T23:24:22.666Z,37.63
2022-12-09T23:26:51.127Z,35.88
2022-12-09T23:29:17.712Z,50.47
2022-12-09T23:31:44.489Z,51.05
2022-12-09T23:34:13.976Z,41.58
2022-12-09T23:36:42.498Z,38.60
2022-12-09T23:39:11.164Z,39.28
2022-12-09T23:41:38.407Z,47.10
2022-12-09T23:44:08.454Z,38.90
2022-12-09T23:46:35.101Z,40.20
2022-12-09T23:49:01.717Z,47.75
2022-12-09T23:51:30.968Z,47.13
2022-12-09T23:53:59.454Z,61.90
2022-12-09T23:56:28.772Z,47.15
2022-12-09T23:58:56.787Z,44.60
